Time;durP1;ratioP1;P1;durP2;ratioP2;P2;SDS_P1;SDS_P2;PMS_P1;PMS_P2;Temp;Humidity;BMP_temperature;BMP_pressure;BME280_temperature;BME280_humidity;BME280_pressure;Samples;Min_cycle;Max_cycle;Signal;HPM_P1;HPM_P2
2021/07/29 00:02:20;;;;;;;5.53;4.10;;;;;;;24.25;100.00;96494.22;5052101;28;20630;-78
2021/07/29 00:04:48;;;;;;;6.10;4.53;;;;;;;24.41;100.00;96493.44;5051669;28;20744;-78
2021/07/29 00:07:15;;;;;;;7.83;4.80;;;;;;;24.17;100.00;96490.00;5051726;28;20225;-78
2021/07/29 00:09:45;;;;;;;7.67;4.67;;;;;;;23.82;100.00;96489.31;5052085;28;20641;-78
2021/07/29 00:12:13;;;;;;;9.43;4.67;;;;;;;23.81;100.00;96480.44;5051688;28;20281;-78
2021/07/29 00:14:46;;;;;;;10.17;4.10;;;;;;;23.82;100.00;96486.63;5051977;28;20263;-78
2021/07/29 00:17:27;;;;;;;10.63;4.67;;;;;;;23.60;100.00;96479.19;5051358;28;20189;-78
2021/07/29 00:19:53;;;;;;;6.43;5.03;;;;;;;23.78;100.00;96485.47;5051989;28;20221;-78
2021/07/29 00:22:20;;;;;;;5.03;4.53;;;;;;;23.89;100.00;96479.25;5052012;28;20283;-78
2021/07/29 00:24:49;;;;;;;7.50;4.53;;;;;;;24.06;100.00;96473.94;5051890;28;20260;-78
2021/07/29 00:27:16;;;;;;;5.83;4.87;;;;;;;24.15;100.00;96469.84;5051155;28;20275;-78
2021/07/29 00:29:43;;;;;;;7.73;4.73;;;;;;;24.00;100.00;96472.22;5051886;28;20236;-78
2021/07/29 00:32:11;;;;;;;5.00;3.90;;;;;;;23.69;100.00;96466.22;5051736;28;20198;-78
2021/07/29 00:34:38;;;;;;;4.83;4.17;;;;;;;23.39;100.00;96459.13;5051594;28;20649;-81
2021/07/29 00:37:07;;;;;;;6.70;4.07;;;;;;;23.62;100.00;96460.97;5051247;28;20198;-78
2021/07/29 00:39:34;;;;;;;5.40;4.60;;;;;;;23.65;100.00;96465.84;5051468;28;20198;-79
2021/07/29 00:42:04;;;;;;;11.27;5.13;;;;;;;23.87;100.00;96463.41;5051290;28;20287;-78
2021/07/29 00:44:34;;;;;;;7.13;4.20;;;;;;;23.88;100.00;96459.66;5051142;28;20202;-79
2021/07/29 00:47:02;;;;;;;4.70;4.13;;;;;;;23.95;100.00;96462.19;5051381;28;20299;-79
2021/07/29 00:49:29;;;;;;;6.67;4.80;;;;;;;23.79;100.00;96465.63;5051364;28;20228;-79
2021/07/29 00:51:57;;;;;;;8.20;4.53;;;;;;;23.52;100.00;96462.59;5051247;28;20237;-79
2021/07/29 00:54:27;;;;;;;4.10;3.80;;;;;;;23.68;100.00;96464.59;5054192;28;20319;-79
2021/07/29 00:56:56;;;;;;;7.67;4.93;;;;;;;23.80;100.00;96461.91;5055486;28;20652;-79
2021/07/29 00:59:25;;;;;;;5.07;4.33;;;;;;;23.49;100.00;96459.38;5055181;28;20212;-79
2021/07/29 01:01:52;;;;;;;7.17;4.47;;;;;;;23.29;100.00;96463.47;5054998;28;20662;-78
2021/07/29 01:04:19;;;;;;;7.60;4.03;;;;;;;23.36;100.00;96462.28;5054808;28;20194;-79
2021/07/29 01:06:47;;;;;;;9.83;4.63;;;;;;;23.45;100.00;96454.69;5054920;28;21058;-78
2021/07/29 01:09:14;;;;;;;5.80;4.10;;;;;;;23.34;100.00;96460.88;5054981;28;20283;-79
2021/07/29 01:11:43;;;;;;;6.30;5.10;;;;;;;23.43;100.00;96454.13;5054645;28;20229;-78
2021/07/29 01:14:11;;;;;;;6.90;4.50;;;;;;;23.52;100.00;96458.09;5054680;28;20289;-78
2021/07/29 01:16:40;;;;;;;7.33;4.83;;;;;;;23.41;100.00;96457.03;5054948;28;20229;-78
2021/07/29 01:19:08;;;;;;;11.80;4.90;;;;;;;23.18;100.00;96454.38;5055228;28;20665;-79
2021/07/29 01:21:38;;;;;;;7.27;5.30;;;;;;;23.34;100.00;96455.53;5054738;28;20744;-78
2021/07/29 01:24:06;;;;;;;6.20;4.67;;;;;;;23.40;100.00;96460.75;5054415;28;20288;-79
2021/07/29 01:26:34;;;;;;;8.53;4.40;;;;;;;23.23;100.00;96457.16;5054467;28;20230;-78
2021/07/29 01:29:02;;;;;;;6.60;4.80;;;;;;;23.05;100.00;96458.09;5054587;28;20261;-79
2021/07/29 01:31:29;;;;;;;7.73;5.20;;;;;;;22.94;100.00;96464.28;5054636;28;20656;-78
2021/07/29 01:33:57;;;;;;;10.23;5.10;;;;;;;22.89;100.00;96464.91;5054477;28;20198;-79
2021/07/29 01:36:24;;;;;;;7.13;5.00;;;;;;;22.94;100.00;96453.56;5054330;28;20285;-78
2021/07/29 01:38:53;;;;;;;9.50;4.67;;;;;;;22.89;100.00;96456.88;5054624;28;20301;-78
2021/07/29 01:41:20;;;;;;;8.27;4.60;;;;;;;23.07;100.00;96460.53;5054128;28;20259;-79
2021/07/29 01:43:47;;;;;;;6.03;4.80;;;;;;;22.81;100.00;96465.28;5054554;28;20240;-79
2021/07/29 01:46:14;;;;;;;8.93;4.67;;;;;;;22.67;100.00;96455.81;5054769;28;20198;-78
2021/07/29 01:48:42;;;;;;;4.80;4.40;;;;;;;22.74;100.00;96454.66;5054122;28;20273;-79
2021/07/29 01:51:09;;;;;;;4.97;4.47;;;;;;;22.62;100.00;96455.69;5053918;28;20244;-78
2021/07/29 01:53:36;;;;;;;5.43;4.83;;;;;;;22.72;100.00;96445.22;5054059;28;20290;-78
2021/07/29 01:56:08;;;;;;;4.70;4.30;;;;;;;22.79;100.00;96441.41;5054285;28;20259;-79
2021/07/29 01:58:35;;;;;;;7.73;4.93;;;;;;;22.87;100.00;96442.91;5054021;28;20221;-79
2021/07/29 02:01:03;;;;;;;8.23;4.87;;;;;;;22.90;100.00;96447.81;5053824;28;20248;-78
2021/07/29 02:03:30;;;;;;;6.23;4.87;;;;;;;23.02;100.00;96453.19;5053642;28;20236;-78
2021/07/29 02:06:01;;;;;;;7.50;4.97;;;;;;;22.73;100.00;96447.69;5054326;28;20301;-78
2021/07/29 02:08:28;;;;;;;5.37;4.80;;;;;;;22.79;100.00;96446.75;5053891;28;20283;-78
2021/07/29 02:10:56;;;;;;;7.03;4.93;;;;;;;22.53;100.00;96449.84;5054064;28;20796;-78
2021/07/29 02:13:24;;;;;;;5.90;4.70;;;;;;;22.54;100.00;96444.25;5053625;28;20194;-78
2021/07/29 02:15:52;;;;;;;7.60;5.13;;;;;;;22.45;100.00;96455.53;5053323;28;20607;-77
2021/07/29 02:18:19;;;;;;;5.33;4.93;;;;;;;22.67;100.00;96453.13;5053586;28;20198;-77
2021/07/29 02:20:46;;;;;;;12.93;6.07;;;;;;;22.67;100.00;96448.59;5053782;28;20198;-78
2021/07/29 02:23:13;;;;;;;6.97;4.57;;;;;;;22.60;100.00;96444.41;5053494;28;20237;-78
2021/07/29 02:25:41;;;;;;;5.20;4.70;;;;;;;22.69;100.00;96445.69;5053525;28;20213;-77
2021/07/29 02:28:09;;;;;;;5.63;5.03;;;;;;;22.63;100.00;96442.06;5053083;28;20229;-78
2021/07/29 02:30:37;;;;;;;9.57;5.17;;;;;;;22.44;100.00;96441.31;5053663;28;20611;-78
2021/07/29 02:33:05;;;;;;;5.57;4.87;;;;;;;22.50;100.00;96443.09;5053315;28;20199;-78
2021/07/29 02:35:32;;;;;;;7.80;5.33;;;;;;;22.50;100.00;96442.28;5053439;28;20202;-78
2021/07/29 02:38:00;;;;;;;7.87;6.13;;;;;;;22.65;100.00;96444.50;5053459;28;20197;-78
2021/07/29 02:40:27;;;;;;;6.47;5.17;;;;;;;22.60;100.00;96447.06;5053331;28;20701;-78
2021/07/29 02:42:54;;;;;;;15.73;5.50;;;;;;;22.45;100.00;96451.00;5053040;28;20263;-78
2021/07/29 02:45:22;;;;;;;8.20;5.67;;;;;;;22.30;100.00;96435.34;5053031;28;20711;-78
2021/07/29 02:47:51;;;;;;;6.33;5.10;;;;;;;22.52;100.00;96446.34;5052800;28;20776;-77
2021/07/29 02:50:18;;;;;;;4.87;4.47;;;;;;;22.29;100.00;96441.75;5053427;28;20585;-78
2021/07/29 02:52:45;;;;;;;8.80;5.73;;;;;;;22.29;100.00;96435.59;5052882;28;20237;-78
2021/07/29 02:55:13;;;;;;;7.70;5.80;;;;;;;22.27;100.00;96445.69;5053278;28;20233;-78
2021/07/29 02:57:40;;;;;;;7.73;5.30;;;;;;;22.16;100.00;96436.56;5052839;28;20198;-78
2021/07/29 03:00:08;;;;;;;11.03;5.33;;;;;;;21.99;100.00;96444.38;5053206;28;20194;-78
2021/07/29 03:02:35;;;;;;;9.20;6.00;;;;;;;22.09;100.00;96444.66;5053059;28;20267;-78
2021/07/29 03:05:05;;;;;;;6.27;4.70;;;;;;;22.05;100.00;96440.81;5052878;28;20287;-78
2021/07/29 03:07:33;;;;;;;8.10;5.60;;;;;;;22.17;100.00;96438.22;5049354;28;20229;-78
2021/07/29 03:10:00;;;;;;;8.80;5.13;;;;;;;22.23;100.00;96437.28;5052501;28;20205;-78
2021/07/29 03:12:30;;;;;;;9.70;5.43;;;;;;;22.08;100.00;96442.22;5052319;28;20635;-78
2021/07/29 03:14:57;;;;;;;11.37;5.53;;;;;;;21.89;100.00;96441.47;5052027;28;20645;-78
2021/07/29 03:17:25;;;;;;;8.27;5.40;;;;;;;22.22;100.00;96441.03;5050776;28;20201;-78
2021/07/29 03:19:52;;;;;;;8.77;5.50;;;;;;;22.13;100.00;96444.22;5052572;28;20761;-78
2021/07/29 03:22:20;;;;;;;5.93;5.33;;;;;;;22.26;100.00;96442.19;5052552;28;20281;-78
2021/07/29 03:24:48;;;;;;;6.33;5.53;;;;;;;21.92;100.00;96446.34;5052632;28;20233;-79
2021/07/29 03:27:15;;;;;;;5.70;5.07;;;;;;;21.71;100.00;96444.13;5052207;28;20201;-79
2021/07/29 03:29:42;;;;;;;5.27;4.77;;;;;;;21.90;100.00;96443.09;5052061;28;20237;-79
2021/07/29 03:32:09;;;;;;;11.03;5.63;;;;;;;22.02;100.00;96437.78;5051748;28;20248;-79
2021/07/29 03:34:37;;;;;;;7.93;5.40;;;;;;;22.03;100.00;96437.56;5052121;28;20288;-78
2021/07/29 03:37:04;;;;;;;6.07;5.57;;;;;;;22.28;100.00;96434.75;5052144;28;20264;-79
2021/07/29 03:39:33;;;;;;;6.90;5.50;;;;;;;22.11;100.00;96432.94;5051686;28;20238;-78
2021/07/29 03:42:00;;;;;;;11.03;5.27;;;;;;;22.05;100.00;96434.66;5051879;28;20292;-78
2021/07/29 03:44:28;;;;;;;11.53;5.57;;;;;;;22.06;100.00;96431.75;5051815;28;20229;-77
2021/07/29 03:46:55;;;;;;;8.33;5.37;;;;;;;22.07;100.00;96432.56;5051876;28;20237;-77
2021/07/29 03:49:22;;;;;;;6.60;5.87;;;;;;;21.90;100.00;96434.25;5051521;28;20759;-77
2021/07/29 03:51:49;;;;;;;5.97;5.37;;;;;;;21.83;100.00;96439.69;5051846;28;20244;-77
2021/07/29 03:54:17;;;;;;;9.57;6.00;;;;;;;21.56;100.00;96442.66;5051927;28;20201;-77
2021/07/29 03:56:46;;;;;;;8.53;5.63;;;;;;;21.60;100.00;96449.19;5051564;28;20243;-77
2021/07/29 03:59:13;;;;;;;8.30;5.80;;;;;;;21.62;100.00;96448.19;5052225;28;20271;-77
2021/07/29 04:01:40;;;;;;;7.13;5.83;;;;;;;21.71;100.00;96433.44;5051729;28;20819;-77
2021/07/29 04:04:07;;;;;;;6.77;5.60;;;;;;;21.62;100.00;96442.84;5051825;28;20289;-77
2021/07/29 04:06:34;;;;;;;7.07;6.40;;;;;;;21.55;100.00;96435.69;5051871;28;20633;-77
2021/07/29 04:09:02;;;;;;;7.13;5.77;;;;;;;21.69;100.00;96433.69;5051483;28;20226;-77
2021/07/29 04:11:29;;;;;;;11.83;6.87;;;;;;;21.77;100.00;96436.03;5051165;28;20202;-77
2021/07/29 04:13:59;;;;;;;10.93;6.30;;;;;;;21.85;100.00;96434.91;5050795;28;20197;-78
2021/07/29 04:16:26;;;;;;;8.63;5.30;;;;;;;21.82;100.00;96440.69;5051678;28;20256;-78
2021/07/29 04:18:53;;;;;;;9.47;6.17;;;;;;;21.78;100.00;96444.88;5051616;28;20238;-78
2021/07/29 04:21:21;;;;;;;8.20;5.90;;;;;;;21.80;100.00;96442.81;5051436;28;20197;-78
2021/07/29 04:23:48;;;;;;;8.87;6.10;;;;;;;21.82;100.00;96446.06;5051628;28;20741;-79
2021/07/29 04:26:15;;;;;;;9.10;5.60;;;;;;;21.81;100.00;96444.44;5051680;28;20237;-79
2021/07/29 04:28:42;;;;;;;7.00;6.30;;;;;;;21.70;100.00;96446.00;5053563;28;20268;-78
2021/07/29 04:31:11;;;;;;;7.73;6.17;;;;;;;21.82;100.00;96440.69;5055545;28;20649;-78
2021/07/29 04:33:38;;;;;;;7.60;6.47;;;;;;;21.93;100.00;96445.31;5055607;28;20237;-77
2021/07/29 04:36:06;;;;;;;7.40;6.10;;;;;;;22.22;100.00;96451.72;5055695;28;20201;-77
2021/07/29 04:38:35;;;;;;;8.77;5.70;;;;;;;22.15;100.00;96455.56;5055726;28;20194;-77
2021/07/29 04:41:03;;;;;;;8.20;5.40;;;;;;;21.82;100.00;96456.75;5056196;28;20252;-78
2021/07/29 04:43:31;;;;;;;7.13;6.43;;;;;;;21.73;100.00;96453.59;5055374;28;20636;-78
2021/07/29 04:46:01;;;;;;;11.40;5.53;;;;;;;21.68;100.00;96458.78;5055465;28;20686;-78
2021/07/29 04:48:30;;;;;;;6.53;5.33;;;;;;;22.00;100.00;96456.75;5054906;28;20229;-78
2021/07/29 04:51:01;;;;;;;6.10;5.20;;;;;;;22.19;100.00;96448.69;5055450;28;20198;-78
2021/07/29 04:53:29;;;;;;;13.90;6.07;;;;;;;22.36;100.00;96464.94;5055259;28;20225;-78
2021/07/29 04:55:56;;;;;;;5.30;4.90;;;;;;;22.33;100.00;96462.72;5055307;28;20682;-78
2021/07/29 04:58:23;;;;;;;10.50;5.53;;;;;;;22.31;100.00;96466.44;5055438;28;20194;-77
2021/07/29 05:00:51;;;;;;;8.27;5.73;;;;;;;22.15;100.00;96469.75;5055226;28;20202;-78
2021/07/29 05:03:18;;;;;;;5.37;4.87;;;;;;;22.12;100.00;96472.03;5055071;28;20202;-78
2021/07/29 05:05:47;;;;;;;6.80;5.00;;;;;;;22.18;100.00;96479.19;5055434;28;20236;-78
2021/07/29 05:08:14;;;;;;;5.63;5.17;;;;;;;22.29;100.00;96479.22;5054948;28;20261;-78
2021/07/29 05:10:41;;;;;;;7.57;5.07;;;;;;;22.48;100.00;96474.66;5055080;28;20194;-77
2021/07/29 05:13:08;;;;;;;6.70;5.03;;;;;;;22.71;100.00;96479.22;5055161;28;20193;-77
2021/07/29 05:15:37;;;;;;;10.70;5.73;;;;;;;22.90;100.00;96474.63;5054915;28;20224;-78
2021/07/29 05:18:04;;;;;;;5.67;5.00;;;;;;;23.05;100.00;96471.50;5054652;28;20198;-78
2021/07/29 05:20:32;;;;;;;10.70;5.87;;;;;;;23.07;100.00;96479.31;5054830;28;20201;-77
2021/07/29 05:23:00;;;;;;;11.63;5.97;;;;;;;23.19;100.00;96477.44;5054798;28;20255;-78
2021/07/29 05:25:29;;;;;;;11.40;6.63;;;;;;;23.25;100.00;96473.84;5054815;28;20194;-78
2021/07/29 05:27:56;;;;;;;14.53;7.07;;;;;;;23.33;100.00;96468.13;5054561;28;20204;-77
2021/07/29 05:30:23;;;;;;;10.93;6.60;;;;;;;23.46;100.00;96475.94;5054474;28;20194;-78
2021/07/29 05:32:51;;;;;;;13.97;7.30;;;;;;;23.57;100.00;96478.84;5054518;28;20273;-78
2021/07/29 05:35:18;;;;;;;15.47;6.63;;;;;;;23.67;100.00;96473.69;5054913;28;20233;-78
2021/07/29 05:37:45;;;;;;;17.77;7.17;;;;;;;23.75;100.00;96477.91;5054239;28;20255;-78
2021/07/29 05:40:14;;;;;;;15.70;6.57;;;;;;;23.89;100.00;96482.75;5053896;28;20285;-78
2021/07/29 05:42:41;;;;;;;19.87;7.07;;;;;;;24.06;100.00;96482.00;5054278;28;20569;-78
2021/07/29 05:45:09;;;;;;;24.00;7.47;;;;;;;24.15;100.00;96483.28;5054466;28;20730;-78
2021/07/29 05:47:37;;;;;;;21.50;7.30;;;;;;;24.29;100.00;96484.63;5053786;28;20234;-78
2021/07/29 05:50:05;;;;;;;14.00;5.73;;;;;;;24.56;100.00;96478.66;5054139;28;20705;-78
2021/07/29 05:52:32;;;;;;;13.63;6.37;;;;;;;24.73;100.00;96486.75;5054156;28;20198;-78
2021/07/29 05:54:59;;;;;;;6.50;5.47;;;;;;;24.98;100.00;96489.88;5054098;28;20735;-78
2021/07/29 05:57:28;;;;;;;11.03;5.83;;;;;;;25.19;100.00;96490.22;5053820;28;20236;-78
2021/07/29 05:59:55;;;;;;;8.27;5.97;;;;;;;25.32;100.00;96497.94;5054130;28;20252;-78
2021/07/29 06:02:22;;;;;;;9.00;6.17;;;;;;;25.47;100.00;96489.28;5054033;28;20240;-78
2021/07/29 06:04:50;;;;;;;11.97;5.20;;;;;;;25.69;100.00;96498.19;5053899;28;20206;-78
2021/07/29 06:07:18;;;;;;;9.27;5.83;;;;;;;25.84;100.00;96487.66;5053946;28;20263;-78
2021/07/29 06:09:45;;;;;;;5.73;5.07;;;;;;;25.89;100.00;96472.63;5053897;28;20257;-79
2021/07/29 06:12:13;;;;;;;4.22;3.40;;;;;;;26.03;100.00;96523.16;5053731;28;20240;-78
2021/07/29 06:14:41;;;;;;;4.15;3.78;;;;;;;26.35;100.00;96519.75;5054121;28;20202;-78
2021/07/29 06:17:09;;;;;;;6.03;3.38;;;;;;;26.56;100.00;96523.53;5053783;28;20193;-79
2021/07/29 06:19:39;;;;;;;3.78;3.15;;;;;;;26.70;100.00;96529.31;5054082;28;20198;-78
2021/07/29 06:22:06;;;;;;;6.85;3.47;;;;;;;26.94;100.00;96524.41;5053875;28;20244;-78
2021/07/29 06:24:34;;;;;;;15.18;4.95;;;;;;;27.09;100.00;96519.19;5053678;28;20666;-78
2021/07/29 06:27:01;;;;;;;4.60;4.13;;;;;;;27.16;100.00;96522.50;5053256;28;20202;-78
2021/07/29 06:29:28;;;;;;;9.45;4.45;;;;;;;27.18;100.00;96528.44;5053493;28;20222;-78
2021/07/29 06:31:57;;;;;;;8.43;4.28;;;;;;;27.45;100.00;96517.56;5053325;28;20202;-78
2021/07/29 06:34:24;;;;;;;4.82;4.10;;;;;;;27.68;100.00;96519.06;5053464;28;20220;-78
2021/07/29 06:36:51;;;;;;;5.93;3.75;;;;;;;27.83;100.00;96518.38;5053382;28;20209;-78
2021/07/29 06:39:19;;;;;;;5.05;4.30;;;;;;;28.00;100.00;96518.19;5053398;28;20194;-78
2021/07/29 06:41:46;;;;;;;4.25;3.70;;;;;;;28.35;100.00;96513.97;5053176;28;20249;-78
2021/07/29 06:44:13;;;;;;;5.90;3.97;;;;;;;28.52;100.00;96513.78;5053650;28;20229;-79
2021/07/29 06:46:40;;;;;;;5.75;3.97;;;;;;;28.69;100.00;96508.97;5052888;28;20291;-78
2021/07/29 06:49:09;;;;;;;4.95;3.95;;;;;;;28.71;100.00;96514.09;5053258;28;20283;-78
2021/07/29 06:51:37;;;;;;;6.50;3.63;;;;;;;28.86;100.00;96514.13;5052395;28;20198;-78
2021/07/29 06:54:05;;;;;;;7.35;3.70;;;;;;;29.01;100.00;96507.94;5053335;28;20276;-78
2021/07/29 06:56:33;;;;;;;7.72;4.03;;;;;;;28.80;100.00;96507.88;5053214;28;20202;-79
2021/07/29 06:59:00;;;;;;;4.25;3.85;;;;;;;28.90;100.00;96512.50;5052879;28;20190;-79
2021/07/29 07:01:27;;;;;;;3.90;3.53;;;;;;;28.95;100.00;96507.06;5052936;28;20735;-79
2021/07/29 07:03:55;;;;;;;5.80;3.67;;;;;;;29.16;100.00;96505.22;5053161;28;20260;-79
2021/07/29 07:06:23;;;;;;;4.32;3.92;;;;;;;29.57;100.00;96507.88;5052553;28;20241;-78
2021/07/29 07:08:50;;;;;;;3.22;3.00;;;;;;;29.29;100.00;96504.66;5052753;28;20268;-78
2021/07/29 07:11:18;;;;;;;4.32;3.78;;;;;;;29.34;100.00;96515.50;5051156;28;20243;-79
2021/07/29 07:13:47;;;;;;;5.15;4.20;;;;;;;29.72;100.00;96512.47;5050243;28;20197;-79
2021/07/29 07:16:16;;;;;;;7.47;3.45;;;;;;;29.92;100.00;96509.72;5051734;28;20229;-79
2021/07/29 07:18:43;;;;;;;7.57;3.35;;;;;;;30.10;100.00;96505.56;5051898;28;20230;-79
2021/07/29 07:21:12;;;;;;;4.32;3.80;;;;;;;30.04;100.00;96507.50;5051745;28;20757;-79
2021/07/29 07:23:41;;;;;;;4.10;3.50;;;;;;;30.00;100.00;96494.78;5051717;28;20625;-79
2021/07/29 07:26:15;;;;;;;4.72;3.40;;;;;;;30.12;100.00;96502.59;5052054;28;20255;-79
2021/07/29 07:28:42;;;;;;;15.18;4.18;;;;;;;30.27;100.00;96505.25;5052411;28;20233;-78
2021/07/29 07:31:10;;;;;;;4.20;3.80;;;;;;;30.28;100.00;96507.72;5052190;28;20301;-78
2021/07/29 07:33:37;;;;;;;4.00;3.60;;;;;;;30.76;100.00;96499.88;5052577;28;20643;-79
2021/07/29 07:36:05;;;;;;;5.38;4.50;;;;;;;30.96;100.00;96498.88;5052398;28;20257;-79
2021/07/29 07:38:32;;;;;;;8.73;4.45;;;;;;;31.00;100.00;96497.25;5052106;28;20213;-79
2021/07/29 07:41:06;;;;;;;6.57;4.80;;;;;;;30.87;100.00;96500.59;5052388;28;20585;-79
2021/07/29 07:43:34;;;;;;;4.93;4.38;;;;;;;31.20;100.00;96490.00;5052089;28;20639;-79
2021/07/29 07:46:02;;;;;;;5.80;4.63;;;;;;;31.60;100.00;96498.91;5052540;28;20630;-79
2021/07/29 07:48:30;;;;;;;6.32;4.60;;;;;;;31.86;100.00;96491.28;5051614;28;20229;-79
2021/07/29 07:50:59;;;;;;;6.13;4.38;;;;;;;31.84;100.00;96491.56;5052044;28;20221;-79
2021/07/29 07:53:29;;;;;;;4.93;4.10;;;;;;;31.59;100.00;96494.53;5051855;28;20594;-79
2021/07/29 07:55:57;;;;;;;8.10;4.57;;;;;;;31.84;100.00;96490.78;5051975;28;20233;-80
2021/07/29 07:58:26;;;;;;;6.00;4.28;;;;;;;31.94;100.00;96494.19;5051632;28;20198;-79
2021/07/29 08:00:53;;;;;;;6.78;4.40;;;;;;;31.91;100.00;96494.78;5051916;28;20202;-79
2021/07/29 08:03:20;;;;;;;9.32;4.63;;;;;;;32.41;100.00;96495.25;5051929;28;20252;-80
2021/07/29 08:05:47;;;;;;;5.63;4.15;;;;;;;32.56;100.00;96487.97;5052217;28;20259;-79
2021/07/29 08:08:15;;;;;;;7.60;4.80;;;;;;;32.44;100.00;96491.16;5051786;28;20244;-79
2021/07/29 08:10:42;;;;;;;9.60;4.60;;;;;;;32.34;100.00;96494.78;5051624;28;20261;-79
2021/07/29 08:13:10;;;;;;;7.05;4.43;;;;;;;32.58;100.00;96486.59;5051667;28;20597;-79
2021/07/29 08:15:39;;;;;;;6.07;4.45;;;;;;;32.69;100.00;96481.81;5051795;28;20212;-79
2021/07/29 08:18:06;;;;;;;10.75;4.95;;;;;;;31.92;100.00;96482.81;5052028;28;20201;-79
2021/07/29 08:20:34;;;;;;;4.80;4.25;;;;;;;32.23;100.00;96481.63;5051739;28;20251;-79
2021/07/29 08:23:01;;;;;;;5.05;4.57;;;;;;;32.33;100.00;96485.00;5051648;28;20553;-80
2021/07/29 08:25:28;;;;;;;9.27;4.80;;;;;;;32.82;100.00;96475.63;5051744;28;20241;-79
2021/07/29 08:27:55;;;;;;;4.88;4.35;;;;;;;33.09;100.00;96476.84;5051578;28;20288;-79
2021/07/29 08:30:23;;;;;;;7.00;4.25;;;;;;;33.04;100.00;96471.47;5051563;28;20229;-79
2021/07/29 08:32:51;;;;;;;8.70;4.65;;;;;;;33.04;100.00;96466.03;5051591;28;20236;-80
2021/07/29 08:35:19;;;;;;;7.00;4.35;;;;;;;33.14;100.00;96469.38;5051603;28;20198;-79
2021/07/29 08:37:49;;;;;;;8.52;4.40;;;;;;;33.17;100.00;96468.00;5051524;28;20587;-80
2021/07/29 08:40:18;;;;;;;8.75;4.57;;;;;;;33.25;100.00;96472.75;5051625;28;20236;-79
2021/07/29 08:42:46;;;;;;;5.72;4.10;;;;;;;33.40;100.00;96468.97;5051224;28;20205;-79
2021/07/29 08:45:13;;;;;;;10.45;4.80;;;;;;;33.53;100.00;96475.56;5051540;28;20260;-79
2021/07/29 08:47:44;;;;;;;8.80;4.38;;;;;;;33.46;100.00;96462.31;5051377;28;20279;-79
2021/07/29 08:50:13;;;;;;;7.97;4.20;;;;;;;33.36;100.00;96462.50;5051151;28;20216;-80
2021/07/29 08:52:41;;;;;;;8.95;4.60;;;;;;;33.65;100.00;96464.97;5051380;28;20639;-79
2021/07/29 08:55:09;;;;;;;6.75;3.78;;;;;;;33.88;100.00;96456.88;5051430;28;20256;-79
2021/07/29 08:57:38;;;;;;;8.13;4.82;;;;;;;33.80;100.00;96459.22;5051263;28;20686;-80
2021/07/29 09:00:09;;;;;;;5.47;4.57;;;;;;;33.89;100.00;96455.81;5051335;28;20193;-80
2021/07/29 09:02:37;;;;;;;6.93;4.30;;;;;;;33.75;100.00;96459.34;5051438;28;20270;-80
2021/07/29 09:05:15;;;;;;;3.95;3.58;;;;;;;33.79;100.00;96452.16;5051135;28;20205;-80
2021/07/29 09:07:42;;;;;;;7.90;4.05;;;;;;;33.70;100.00;96444.97;5050847;28;20284;-80
2021/07/29 09:10:22;;;;;;;7.53;3.90;;;;;;;33.57;100.00;96446.63;5051246;28;20653;-80
2021/07/29 09:13:08;;;;;;;7.15;4.28;;;;;;;33.67;100.00;96449.16;5051236;28;20194;-80
2021/07/29 09:15:35;;;;;;;6.30;4.32;;;;;;;33.57;100.00;96446.63;5054584;28;20186;-80
2021/07/29 09:18:04;;;;;;;5.97;4.28;;;;;;;33.89;100.00;96442.16;5055054;28;20229;-80
2021/07/29 09:20:33;;;;;;;4.72;3.88;;;;;;;34.29;100.00;96444.06;5054951;28;20201;-80
2021/07/29 09:23:14;;;;;;;7.85;4.97;;;;;;;34.28;100.00;96445.16;5054463;28;20646;-80
2021/07/29 09:25:41;;;;;;;10.07;4.35;;;;;;;34.18;100.00;96439.91;5054832;28;20188;-80
2021/07/29 09:28:08;;;;;;;11.70;4.25;;;;;;;34.27;100.00;96438.09;5054643;28;20193;-80
2021/07/29 09:30:36;;;;;;;8.70;6.97;;;;;;;34.29;100.00;96440.50;5054949;28;20217;-81
2021/07/29 09:33:05;;;;;;;7.90;6.05;;;;;;;34.30;100.00;96440.22;5054678;28;20224;-81
2021/07/29 09:35:38;;;;;;;8.07;4.95;;;;;;;34.28;100.00;96436.97;5054847;28;20233;-81
2021/07/29 09:38:09;;;;;;;4.80;4.05;;;;;;;33.93;100.00;96438.53;5054521;28;20190;-80
2021/07/29 09:40:44;;;;;;;7.60;5.80;;;;;;;34.24;100.00;96427.78;5054605;28;20217;-80
2021/07/29 09:43:14;;;;;;;15.23;5.03;;;;;;;34.19;100.00;96430.66;5054392;28;20193;-79
2021/07/29 09:45:42;;;;;;;15.45;5.95;;;;;;;34.40;100.00;96428.25;5054435;28;20261;-80
2021/07/29 09:48:11;;;;;;;24.25;16.10;;;;;;;34.48;100.00;96427.53;5054153;28;20238;-80
2021/07/29 09:50:41;;;;;;;11.57;6.15;;;;;;;34.20;100.00;96426.78;5054322;28;20606;-80
2021/07/29 09:53:09;;;;;;;9.27;5.07;;;;;;;34.50;100.00;96424.47;5054157;28;20651;-80
2021/07/29 09:55:37;;;;;;;8.35;4.45;;;;;;;34.80;100.00;96422.97;5054300;28;20195;-81
2021/07/29 09:58:05;;;;;;;5.22;4.68;;;;;;;34.61;100.00;96417.72;5053824;28;20194;-80
2021/07/29 10:00:35;;;;;;;7.40;5.13;;;;;;;34.64;100.00;96425.28;5054192;28;20233;-81
2021/07/29 10:03:05;;;;;;;13.65;4.88;;;;;;;34.62;100.00;96415.78;5054000;28;20186;-80
2021/07/29 10:05:52;;;;;;;5.68;4.55;;;;;;;34.88;100.00;96413.22;5054510;28;20189;-81
2021/07/29 10:08:31;;;;;;;5.28;4.40;;;;;;;34.72;100.00;96418.28;5053913;28;20197;-80
2021/07/29 10:11:00;;;;;;;5.60;4.15;;;;;;;34.69;100.00;96416.16;5054016;28;20213;-81
2021/07/29 10:13:38;;;;;;;11.82;5.00;;;;;;;34.61;100.00;96414.97;5053685;28;20256;-81
2021/07/29 10:16:06;;;;;;;9.38;4.97;;;;;;;34.81;100.00;96415.59;5053828;28;20197;-81
2021/07/29 10:19:05;;;;;;;9.50;5.82;;;;;;;34.91;100.00;96401.69;5053679;28;20244;-80
2021/07/29 10:21:36;;;;;;;9.32;4.97;;;;;;;35.25;100.00;96406.56;5053736;28;20186;-81
2021/07/29 10:24:05;;;;;;;10.68;5.50;;;;;;;35.18;100.00;96400.75;5053856;28;20698;-81
2021/07/29 10:26:34;;;;;;;8.65;5.28;;;;;;;35.36;100.00;96401.63;5053707;28;20666;-81
2021/07/29 10:29:25;;;;;;;9.00;4.75;;;;;;;35.29;100.00;96402.06;5053913;28;20221;-81
2021/07/29 10:31:54;;;;;;;10.23;5.55;;;;;;;35.22;100.00;96397.06;5053176;28;20225;-81
2021/07/29 10:34:26;;;;;;;7.53;5.50;;;;;;;35.43;100.00;96401.97;5053868;28;20197;-81
2021/07/29 10:36:55;;;;;;;9.18;5.15;;;;;;;35.34;100.00;96404.69;5053596;28;20197;-80
2021/07/29 10:39:23;;;;;;;5.97;4.72;;;;;;;35.34;100.00;96396.50;5053508;28;20662;-81
2021/07/29 10:41:52;;;;;;;9.75;4.88;;;;;;;35.75;100.00;96398.13;5052990;28;20194;-81
2021/07/29 10:44:47;;;;;;;5.93;4.95;;;;;;;35.77;100.00;96389.59;5053260;28;20252;-80
2021/07/29 10:47:17;;;;;;;9.07;5.90;;;;;;;35.59;100.00;96381.34;5052897;28;20635;-81
2021/07/29 10:50:10;;;;;;;7.50;4.95;;;;;;;35.73;100.00;96379.28;5052977;28;20347;-81
2021/07/29 10:52:40;;;;;;;4.88;4.50;;;;;;;35.65;100.00;96392.94;5053031;28;20186;-81
2021/07/29 10:55:11;;;;;;;6.32;5.05;;;;;;;35.63;100.00;96382.31;5053207;28;20233;-81
2021/07/29 10:57:39;;;;;;;9.10;5.60;;;;;;;35.76;100.00;96382.50;5053204;28;20212;-81
2021/07/29 11:00:08;;;;;;;13.93;5.07;;;;;;;36.05;100.00;96379.22;5053256;28;20236;-81
2021/07/29 11:02:45;;;;;;;13.93;5.50;;;;;;;35.84;100.00;96381.72;5052865;28;20241;-81
2021/07/29 11:05:19;;;;;;;12.68;5.90;;;;;;;35.77;100.00;96378.66;5052960;28;20190;-81
2021/07/29 11:07:49;;;;;;;9.65;5.13;;;;;;;35.96;100.00;96377.25;5052698;28;20193;-81
2021/07/29 11:10:17;;;;;;;10.52;5.88;;;;;;;35.91;100.00;96377.38;5053329;28;20309;-81
2021/07/29 11:12:48;;;;;;;6.63;5.35;;;;;;;36.16;100.00;96370.38;5052701;28;20296;-81
2021/07/29 11:15:15;;;;;;;9.38;4.78;;;;;;;36.06;100.00;96370.69;5053359;28;20190;-81
2021/07/29 11:17:43;;;;;;;7.55;6.50;;;;;;;36.04;100.00;96367.47;5052326;28;20240;-81
2021/07/29 11:20:11;;;;;;;9.07;5.47;;;;;;;36.21;100.00;96366.69;5052667;28;20232;-81
2021/07/29 11:22:44;;;;;;;6.60;4.82;;;;;;;36.01;100.00;96367.31;5052673;28;20586;-81
2021/07/29 11:25:14;;;;;;;9.93;5.35;;;;;;;36.31;100.00;96360.88;5052638;28;20204;-81
2021/07/29 11:27:43;;;;;;;6.57;5.93;;;;;;;36.14;100.00;96361.69;5052489;28;20185;-82
2021/07/29 11:30:12;;;;;;;12.48;5.65;;;;;;;35.99;100.00;96364.03;5052745;28;20229;-81
2021/07/29 11:32:41;;;;;;;6.78;5.63;;;;;;;36.07;100.00;96350.41;5052219;28;20240;-82